Terminal Aerodrome Forecast
Issued by NWS

Current Version | Previous Version | Text Only | Print | Product List | Glossary On
Versions: 1 2 3 4 5 6 7 8 9 10 11 12 13 14 15 16 17 18 19
000
FTUS46 KLOX 271100
TAFLGB
TAF
KLGB 271132Z 2712/2812 VRB03KT P6SM OVC018
     FM271400 VRB03KT P6SM OVC022
     FM272000 19008KT P6SM SCT025
     FM280100 26010KT P6SM BKN025 BKN080
     FM281100 28007KT P6SM OVC035=

USA.gov is the U.S. government's official web portal to all federal, state and local government web resources and services.